createdAt,value
2019-05-30T00:02:34.159Z,16.90
2019-05-30T00:07:40.106Z,16.80
2019-05-30T00:12:43.804Z,16.80
2019-05-30T00:17:47.443Z,16.80
2019-05-30T00:22:51.815Z,16.80
2019-05-30T00:27:55.480Z,16.80
2019-05-30T00:32:59.145Z,16.80
2019-05-30T00:38:03.811Z,16.80
2019-05-30T00:43:09.468Z,16.70
2019-05-30T00:48:13.008Z,16.70
2019-05-30T00:53:16.715Z,16.70
2019-05-30T00:58:20.425Z,16.60
2019-05-30T01:03:24.121Z,16.60
2019-05-30T01:08:27.943Z,16.60
2019-05-30T01:13:31.558Z,16.60
2019-05-30T01:18:36.761Z,16.60
2019-05-30T01:23:46.241Z,16.60
2019-05-30T01:28:49.917Z,16.50
2019-05-30T01:33:53.611Z,16.40
2019-05-30T01:39:00.203Z,16.40
2019-05-30T01:44:04.014Z,16.40
2019-05-30T01:49:08.697Z,16.30
2019-05-30T01:54:12.511Z,16.30
2019-05-30T01:59:16.276Z,16.30
2019-05-30T02:04:19.873Z,16.30
2019-05-30T02:09:23.593Z,16.20
2019-05-30T02:14:27.260Z,16.20
2019-05-30T02:19:31.870Z,16.20
2019-05-30T02:24:35.667Z,16.20
2019-05-30T02:29:39.338Z,16.10
2019-05-30T02:34:42.943Z,16.00
2019-05-30T02:39:47.482Z,16.00
2019-05-30T02:44:54.110Z,15.90
2019-05-30T02:49:57.721Z,15.80
2019-05-30T02:55:01.972Z,15.70
2019-05-30T03:00:08.349Z,15.60
2019-05-30T03:05:14.849Z,15.50
2019-05-30T03:10:18.316Z,15.40
2019-05-30T03:15:24.384Z,15.40
2019-05-30T03:20:28.277Z,15.30
2019-05-30T03:25:33.645Z,15.30
2019-05-30T03:30:37.329Z,15.30
2019-05-30T03:35:43.716Z,15.30
2019-05-30T03:40:46.499Z,15.30
2019-05-30T03:45:50.306Z,15.20
2019-05-30T03:50:56.444Z,15.20
2019-05-30T03:56:04.547Z,15.20
2019-05-30T04:01:15.961Z,15.20
2019-05-30T04:06:31.556Z,15.20
2019-05-30T04:11:47.038Z,15.20
2019-05-30T04:16:50.686Z,15.20
2019-05-30T04:21:54.467Z,15.10
2019-05-30T04:26:58.041Z,15.10
2019-05-30T04:32:04.568Z,15.10
2019-05-30T04:37:08.407Z,15.10
2019-05-30T04:42:20.559Z,15.10
2019-05-30T04:47:23.922Z,15.10
2019-05-30T04:52:27.606Z,15.10
2019-05-30T04:57:31.421Z,15.20
2019-05-30T05:02:35.032Z,15.20
2019-05-30T05:07:39.137Z,15.20
2019-05-30T05:12:42.823Z,15.20
2019-05-30T05:17:46.497Z,15.20
2019-05-30T05:22:50.040Z,15.10
2019-05-30T05:27:53.724Z,15.10
2019-05-30T05:32:57.350Z,15.10
2019-05-30T05:38:01.061Z,15.10
2019-05-30T05:43:04.785Z,15.10
2019-05-30T05:48:08.507Z,15.10
2019-05-30T05:53:12.113Z,15.10
2019-05-30T05:58:19.171Z,15.10
2019-05-30T06:03:28.654Z,15.10
2019-05-30T06:08:32.377Z,15.10
2019-05-30T06:13:36.094Z,15.10
2019-05-30T06:18:39.786Z,15.10
2019-05-30T06:23:45.780Z,15.20
2019-05-30T06:28:48.880Z,15.20
2019-05-30T06:33:52.544Z,15.20
2019-05-30T06:38:56.220Z,15.20
2019-05-30T06:44:05.665Z,15.20
2019-05-30T06:49:08.269Z,15.20
2019-05-30T06:54:11.990Z,15.30
2019-05-30T06:59:17.164Z,15.30
2019-05-30T07:04:21.662Z,15.30
2019-05-30T07:09:26.820Z,15.30
2019-05-30T07:14:31.476Z,15.40
2019-05-30T07:19:37.968Z,15.40
2019-05-30T07:24:43.150Z,15.40
2019-05-30T07:29:46.867Z,15.40
2019-05-30T07:35:05.679Z,15.40
2019-05-30T07:39:55.990Z,15.50
2019-05-30T07:45:00.665Z,15.50
2019-05-30T07:50:07.937Z,15.50
2019-05-30T07:55:12.443Z,15.50
2019-05-30T08:00:19.155Z,15.60
2019-05-30T08:05:24.849Z,15.60
2019-05-30T08:10:29.956Z,15.60
2019-05-30T08:15:33.711Z,15.60
2019-05-30T08:20:38.043Z,15.60
2019-05-30T08:25:42.049Z,15.60
2019-05-30T08:30:45.697Z,15.70
2019-05-30T08:35:50.386Z,15.70
2019-05-30T08:40:54.143Z,15.70
2019-05-30T08:45:57.722Z,15.70
2019-05-30T08:51:01.331Z,15.70
2019-05-30T08:56:09.084Z,15.70
2019-05-30T09:01:12.793Z,15.70
2019-05-30T09:06:16.583Z,15.70
2019-05-30T09:11:20.187Z,15.80
2019-05-30T09:16:25.778Z,15.80
2019-05-30T09:21:29.547Z,15.80
2019-05-30T09:26:33.326Z,15.80
2019-05-30T09:31:38.078Z,15.80
2019-05-30T09:36:42.773Z,15.90
2019-05-30T09:41:49.896Z,15.90
2019-05-30T09:46:54.819Z,15.90
2019-05-30T09:52:02.840Z,15.90
2019-05-30T09:57:03.797Z,16.00
2019-05-30T10:02:10.440Z,16.00
2019-05-30T10:07:14.110Z,16.00
2019-05-30T10:12:19.595Z,16.00
2019-05-30T10:17:25.082Z,16.00
2019-05-30T10:22:30.195Z,16.10
2019-05-30T10:27:36.831Z,16.10
2019-05-30T10:32:42.530Z,16.10
2019-05-30T10:37:49.220Z,16.10
2019-05-30T10:42:54.612Z,16.20
2019-05-30T10:48:02.566Z,16.20
2019-05-30T10:53:12.777Z,16.30
2019-05-30T10:58:25.783Z,16.30
2019-05-30T11:03:30.050Z,16.40
2019-05-30T11:08:37.226Z,16.50
2019-05-30T11:13:40.899Z,16.50
2019-05-30T11:18:44.529Z,16.60
2019-05-30T11:23:49.647Z,16.60
2019-05-30T11:28:55.348Z,16.70
2019-05-30T11:33:59.240Z,16.80
2019-05-30T11:39:03.190Z,16.80
2019-05-30T11:44:09.027Z,16.90
2019-05-30T11:49:15.864Z,16.90
2019-05-30T11:54:19.642Z,17.00
2019-05-30T11:59:23.413Z,17.10
2019-05-30T12:04:29.980Z,17.10
2019-05-30T12:09:34.879Z,17.20
2019-05-30T12:14:41.718Z,17.40
2019-05-30T12:19:46.471Z,17.50
2019-05-30T12:24:51.670Z,17.50
2019-05-30T12:29:56.219Z,17.70
2019-05-30T12:35:11.873Z,17.90
2019-05-30T12:40:17.540Z,18.00
2019-05-30T12:45:23.299Z,18.10
2019-05-30T12:50:27.193Z,18.20
2019-05-30T12:55:30.870Z,18.40
2019-05-30T13:00:37.346Z,18.60
2019-05-30T13:05:41.071Z,18.70
2019-05-30T13:10:44.759Z,18.90
2019-05-30T13:15:48.337Z,19.00
2019-05-30T13:20:53.637Z,19.20
2019-05-30T13:26:03.850Z,19.30
2019-05-30T13:31:09.281Z,19.50
2019-05-30T13:36:18.815Z,19.60
2019-05-30T13:41:24.135Z,19.70
2019-05-30T13:46:27.702Z,19.80
2019-05-30T13:51:31.324Z,20.00
2019-05-30T13:56:35.008Z,20.10
2019-05-30T14:01:41.877Z,20.20
2019-05-30T14:06:45.536Z,20.30
2019-05-30T14:11:49.287Z,20.40
2019-05-30T14:16:52.902Z,20.50
2019-05-30T14:21:56.645Z,20.60
2019-05-30T14:27:01.366Z,20.70
2019-05-30T14:32:05.768Z,20.80
2019-05-30T14:37:12.704Z,20.90
2019-05-30T14:42:17.376Z,21.00
2019-05-30T14:47:21.163Z,21.10
2019-05-30T14:52:24.693Z,21.10
2019-05-30T14:57:28.377Z,21.20
2019-05-30T15:02:32.037Z,21.10
2019-05-30T15:07:35.650Z,21.10
2019-05-30T15:12:39.537Z,21.10
2019-05-30T15:17:43.231Z,21.00
2019-05-30T15:22:48.393Z,21.00
2019-05-30T15:27:52.068Z,21.00
2019-05-30T15:32:55.746Z,21.00
2019-05-30T15:38:02.525Z,20.90
2019-05-30T15:43:07.216Z,20.90
2019-05-30T15:48:12.362Z,20.90
2019-05-30T15:53:19.235Z,20.80
2019-05-30T15:58:22.448Z,20.80
2019-05-30T16:03:26.080Z,20.80
2019-05-30T16:08:29.701Z,20.90
2019-05-30T16:13:33.475Z,20.90
2019-05-30T16:18:44.232Z,20.90
2019-05-30T16:23:48.039Z,20.90
2019-05-30T16:28:51.710Z,20.80
2019-05-30T16:33:55.403Z,20.80
2019-05-30T16:39:00.996Z,20.80
2019-05-30T16:44:04.566Z,20.80
2019-05-30T16:49:14.372Z,20.80
2019-05-30T16:54:23.459Z,20.80
2019-05-30T16:59:27.209Z,20.80
2019-05-30T17:04:32.809Z,20.80
2019-05-30T17:09:36.539Z,20.80
2019-05-30T17:14:40.159Z,20.80
2019-05-30T17:19:44.819Z,20.80
2019-05-30T17:24:48.487Z,20.80
2019-05-30T17:29:52.106Z,20.80
2019-05-30T17:34:55.815Z,20.80
2019-05-30T17:40:00.483Z,20.80
2019-05-30T17:45:07.608Z,20.80
2019-05-30T17:50:12.743Z,20.80
2019-05-30T17:55:23.886Z,20.80
2019-05-30T18:00:28.523Z,20.80
2019-05-30T18:05:32.523Z,20.80
2019-05-30T18:10:36.222Z,20.80
2019-05-30T18:15:41.475Z,20.80
2019-05-30T18:20:48.437Z,20.80
2019-05-30T18:25:50.534Z,20.80
2019-05-30T18:30:54.162Z,20.80
2019-05-30T18:35:57.805Z,20.70
2019-05-30T18:41:11.612Z,20.70
2019-05-30T18:46:07.959Z,20.70
2019-05-30T18:51:11.957Z,20.70
2019-05-30T18:56:15.915Z,20.70
2019-05-30T19:01:19.548Z,20.70
2019-05-30T19:06:23.179Z,20.70
2019-05-30T19:11:33.408Z,20.60
2019-05-30T19:16:32.412Z,20.60
2019-05-30T19:21:36.290Z,20.60
2019-05-30T19:26:39.966Z,20.60
2019-05-30T19:31:45.457Z,20.60
2019-05-30T19:36:49.183Z,20.60
2019-05-30T19:41:57.415Z,20.60
2019-05-30T19:46:59.698Z,20.50
2019-05-30T19:52:03.415Z,20.50
2019-05-30T19:57:07.142Z,20.50
2019-05-30T20:02:16.080Z,20.50
2019-05-30T20:07:19.803Z,20.40
2019-05-30T20:12:23.446Z,20.40
2019-05-30T20:17:29.946Z,20.40
2019-05-30T20:22:32.447Z,20.40
2019-05-30T20:27:36.684Z,20.30
2019-05-30T20:32:40.882Z,20.30
2019-05-30T20:37:44.903Z,20.30
2019-05-30T20:42:48.581Z,20.30
2019-05-30T20:47:52.280Z,20.30
2019-05-30T20:52:56.729Z,20.30
2019-05-30T20:58:00.407Z,20.20
2019-05-30T21:03:04.184Z,20.20
2019-05-30T21:08:07.866Z,20.20
2019-05-30T21:13:13.045Z,20.10
2019-05-30T21:18:19.278Z,20.10
2019-05-30T21:23:24.531Z,20.10
2019-05-30T21:28:28.222Z,20.00
2019-05-30T21:33:31.869Z,20.10
2019-05-30T21:38:35.549Z,20.00
2019-05-30T21:43:40.310Z,20.00
2019-05-30T21:48:44.947Z,20.00
2019-05-30T21:53:49.649Z,19.90
2019-05-30T21:58:54.441Z,19.90
2019-05-30T22:03:58.139Z,19.80
2019-05-30T22:09:03.555Z,19.90
2019-05-30T22:14:10.430Z,19.80
2019-05-30T22:19:13.998Z,19.80
2019-05-30T22:24:17.603Z,19.70
2019-05-30T22:29:21.237Z,19.80
2019-05-30T22:34:26.017Z,19.70
2019-05-30T22:39:29.647Z,19.70
2019-05-30T22:44:33.228Z,19.70
2019-05-30T22:49:36.850Z,19.60
2019-05-30T22:54:41.972Z,19.60
2019-05-30T22:59:46.508Z,19.50
2019-05-30T23:04:50.514Z,19.50
2019-05-30T23:09:54.188Z,19.40
2019-05-30T23:14:57.767Z,19.40
2019-05-30T23:20:01.459Z,19.40
2019-05-30T23:25:08.357Z,19.30
2019-05-30T23:30:12.385Z,19.30
2019-05-30T23:35:16.107Z,19.20
2019-05-30T23:40:23.826Z,19.20
2019-05-30T23:45:27.448Z,19.20
2019-05-30T23:50:31.187Z,19.10
2019-05-30T23:55:34.801Z,19.10
